Time;durP1;ratioP1;P1;durP2;ratioP2;P2;SDS_P1;SDS_P2;PMS_P1;PMS_P2;Temp;Humidity;BMP_temperature;BMP_pressure;BME280_temperature;BME280_humidity;BME280_pressure;Samples;Min_cycle;Max_cycle;Signal;HPM_P1;HPM_P2
2022/11/10 00:02:13;;;;;;;10.50;2.08;;;;;;;;;;5020656;28;20104;-64
2022/11/10 00:04:38;;;;;;;7.53;2.10;;;;;;;;;;5025727;28;20635;-66
2022/11/10 00:07:03;;;;;;;9.63;2.20;;;;;;;;;;5035963;28;20029;-64
2022/11/10 00:09:29;;;;;;;10.45;2.50;;;;;;;;;;5035438;28;20018;-67
2022/11/10 00:11:54;;;;;;;13.20;2.53;;;;;;;;;;5036982;28;20017;-66
2022/11/10 00:17:03;;;;;;;5.05;1.60;;;;;;;;;;5034506;28;20029;-66
2022/11/10 00:19:32;;;;;;;12.75;2.15;;;;;;;;;;5025199;28;20010;-65
2022/11/10 00:21:57;;;;;;;10.93;2.30;;;;;;;;;;5028887;28;20021;-65
2022/11/10 00:24:23;;;;;;;18.60;2.30;;;;;;;;;;5026724;28;20030;-65
2022/11/10 00:26:48;;;;;;;11.93;2.33;;;;;;;;;;5034900;28;20017;-66
2022/11/10 00:29:13;;;;;;;11.75;2.35;;;;;;;;;;5036508;28;20021;-65
2022/11/10 00:31:39;;;;;;;6.40;1.77;;;;;;;;;;5033508;28;20013;-65
2022/11/10 00:34:05;;;;;;;12.95;2.20;;;;;;;;;;5036393;28;20029;-64
2022/11/10 00:36:30;;;;;;;16.55;2.35;;;;;;;;;;5035599;28;20093;-66
2022/11/10 00:38:55;;;;;;;15.77;2.70;;;;;;;;;;5035241;28;20028;-65
2022/11/10 00:41:21;;;;;;;11.98;2.30;;;;;;;;;;5028629;28;20423;-67
2022/11/10 00:43:47;;;;;;;12.05;2.67;;;;;;;;;;5034648;28;20030;-67
2022/11/10 00:46:12;;;;;;;12.65;2.28;;;;;;;;;;5029153;28;20026;-65
2022/11/10 00:48:37;;;;;;;14.45;2.95;;;;;;;;;;5027583;28;20017;-65
2022/11/10 00:51:02;;;;;;;11.68;2.28;;;;;;;;;;5035672;28;20383;-67
2022/11/10 00:53:28;;;;;;;8.50;2.45;;;;;;;;;;5026436;28;20102;-67
2022/11/10 00:55:53;;;;;;;10.45;1.80;;;;;;;;;;5036461;28;20041;-64
2022/11/10 00:58:19;;;;;;;11.02;2.30;;;;;;;;;;5034008;28;20106;-65
2022/11/10 01:00:44;;;;;;;7.20;2.13;;;;;;;;;;5021650;28;20022;-64
2022/11/10 01:03:16;;;;;;;13.85;2.70;;;;;;;;;;5024941;28;20054;-65
2022/11/10 01:05:41;;;;;;;14.63;2.58;;;;;;;;;;5019064;28;20025;-64
2022/11/10 01:08:06;;;;;;;10.02;2.38;;;;;;;;;;5024404;28;20053;-66
2022/11/10 01:10:32;;;;;;;13.60;2.47;;;;;;;;;;5017277;28;20045;-65
2022/11/10 01:12:57;;;;;;;17.00;2.78;;;;;;;;;;5015857;28;20176;-65
2022/11/10 01:15:23;;;;;;;12.65;2.28;;;;;;;;;;5016990;28;20670;-65
2022/11/10 01:17:48;;;;;;;13.68;3.13;;;;;;;;;;5025203;28;20448;-65
2022/11/10 01:20:13;;;;;;;18.67;2.30;;;;;;;;;;5034469;28;20406;-64
2022/11/10 01:22:39;;;;;;;14.20;2.60;;;;;;;;;;5034394;28;20014;-64
2022/11/10 01:25:05;;;;;;;11.95;2.65;;;;;;;;;;5033782;28;20021;-65
2022/11/10 01:27:30;;;;;;;11.10;2.42;;;;;;;;;;5033907;28;20017;-64
2022/11/10 01:29:55;;;;;;;9.27;2.05;;;;;;;;;;5033942;28;20104;-65
2022/11/10 01:32:20;;;;;;;11.57;2.17;;;;;;;;;;5028754;28;20015;-64
2022/11/10 01:34:46;;;;;;;14.60;2.58;;;;;;;;;;5034066;28;20040;-66
2022/11/10 01:37:11;;;;;;;19.90;2.50;;;;;;;;;;5021189;28;20018;-64
2022/11/10 01:39:36;;;;;;;9.48;2.42;;;;;;;;;;5031422;28;20093;-66
2022/11/10 01:42:02;;;;;;;10.00;1.85;;;;;;;;;;5024483;28;20120;-66
2022/11/10 01:44:27;;;;;;;10.48;2.40;;;;;;;;;;5017504;28;20140;-67
2022/11/10 01:46:52;;;;;;;9.07;2.00;;;;;;;;;;5015142;28;20052;-64
2022/11/10 01:49:23;;;;;;;13.63;1.90;;;;;;;;;;5016483;28;20017;-66
2022/11/10 01:51:48;;;;;;;10.38;2.03;;;;;;;;;;5023844;28;20496;-66
2022/11/10 01:54:15;;;;;;;5.80;1.80;;;;;;;;;;5029771;28;20327;-66
2022/11/10 01:56:43;;;;;;;17.65;2.20;;;;;;;;;;5034329;28;20029;-65
2022/11/10 01:59:11;;;;;;;18.42;1.85;;;;;;;;;;5017796;28;20010;-65
2022/11/10 02:01:36;;;;;;;7.88;1.90;;;;;;;;;;5012933;28;20072;-66
2022/11/10 02:04:03;;;;;;;13.88;2.30;;;;;;;;;;5013843;28;20017;-65
2022/11/10 02:06:30;;;;;;;11.98;1.90;;;;;;;;;;5014726;28;20041;-65
2022/11/10 02:08:56;;;;;;;10.30;1.90;;;;;;;;;;5016958;28;20049;-65
2022/11/10 02:11:22;;;;;;;13.98;2.20;;;;;;;;;;5032397;28;20021;-64
2022/11/10 02:13:47;;;;;;;13.30;2.33;;;;;;;;;;5030243;28;20091;-66
2022/11/10 02:16:13;;;;;;;13.30;2.22;;;;;;;;;;5013691;28;20041;-64
2022/11/10 02:18:38;;;;;;;9.50;2.60;;;;;;;;;;5016139;28;20029;-66
2022/11/10 02:21:04;;;;;;;8.00;2.47;;;;;;;;;;5014963;28;20014;-63
2022/11/10 02:23:29;;;;;;;11.77;1.83;;;;;;;;;;5015974;28;20017;-64
2022/11/10 02:25:55;;;;;;;15.02;2.13;;;;;;;;;;5029238;28;20028;-66
2022/11/10 02:28:20;;;;;;;13.27;2.15;;;;;;;;;;5018190;28;20818;-65
2022/11/10 02:30:46;;;;;;;9.13;2.08;;;;;;;;;;5023270;28;20041;-65
2022/11/10 02:33:11;;;;;;;10.85;2.63;;;;;;;;;;5027172;28;20024;-65
2022/11/10 02:35:36;;;;;;;8.90;2.17;;;;;;;;;;5021764;28;20029;-65
2022/11/10 02:38:01;;;;;;;19.50;3.58;;;;;;;;;;5031335;28;20014;-65
2022/11/10 02:40:27;;;;;;;16.25;2.28;;;;;;;;;;5023166;28;20060;-65
2022/11/10 02:42:52;;;;;;;17.48;2.72;;;;;;;;;;5032781;28;20037;-65
2022/11/10 02:45:17;;;;;;;21.15;2.17;;;;;;;;;;5034793;28;20017;-66
2022/11/10 02:47:42;;;;;;;11.90;1.98;;;;;;;;;;5032884;28;20018;-65
2022/11/10 02:50:08;;;;;;;9.07;2.13;;;;;;;;;;5035579;28;20017;-65
2022/11/10 02:52:35;;;;;;;10.25;2.13;;;;;;;;;;5030974;28;20084;-66
2022/11/10 02:55:00;;;;;;;11.25;2.50;;;;;;;;;;5024918;28;20013;-65
2022/11/10 02:57:26;;;;;;;12.07;1.83;;;;;;;;;;5030895;28;20024;-65
2022/11/10 02:59:51;;;;;;;8.65;2.13;;;;;;;;;;5014355;28;20488;-64
2022/11/10 03:02:17;;;;;;;18.17;2.42;;;;;;;;;;5014620;28;20024;-66
2022/11/10 03:04:42;;;;;;;8.57;2.10;;;;;;;;;;5015496;28;20024;-65
2022/11/10 03:07:07;;;;;;;9.70;2.28;;;;;;;;;;5028097;28;20014;-66
2022/11/10 03:09:32;;;;;;;19.75;3.00;;;;;;;;;;5024390;28;20348;-66
2022/11/10 03:11:58;;;;;;;7.05;2.00;;;;;;;;;;5020231;28;20463;-66
2022/11/10 03:14:23;;;;;;;13.30;2.63;;;;;;;;;;5015198;28;20537;-66
2022/11/10 03:16:48;;;;;;;12.02;2.28;;;;;;;;;;5015409;28;20589;-67
2022/11/10 03:19:13;;;;;;;9.20;2.05;;;;;;;;;;5023653;28;20014;-64
2022/11/10 03:21:38;;;;;;;21.75;2.13;;;;;;;;;;5028055;28;20032;-64
2022/11/10 03:24:04;;;;;;;28.30;2.60;;;;;;;;;;5037729;28;20436;-64
2022/11/10 03:26:29;;;;;;;10.20;3.60;;;;;;;;;;5026391;28;20040;-64
2022/11/10 03:28:54;;;;;;;13.15;1.95;;;;;;;;;;5019675;28;20487;-66
2022/11/10 03:31:20;;;;;;;11.30;2.15;;;;;;;;;;5023620;28;20438;-65
2022/11/10 03:33:45;;;;;;;7.25;2.45;;;;;;;;;;5037677;28;20375;-65
2022/11/10 03:36:10;;;;;;;7.25;2.00;;;;;;;;;;5022673;28;20057;-66
2022/11/10 03:38:35;;;;;;;9.25;2.10;;;;;;;;;;5018031;28;20014;-65
2022/11/10 03:41:01;;;;;;;16.52;2.35;;;;;;;;;;5031199;28;20683;-66
2022/11/10 03:43:26;;;;;;;10.15;2.15;;;;;;;;;;5036640;28;20433;-64
2022/11/10 03:45:51;;;;;;;17.55;2.80;;;;;;;;;;5024388;28;20018;-65
2022/11/10 03:48:16;;;;;;;8.75;2.20;;;;;;;;;;5018848;28;20014;-65
2022/11/10 03:50:42;;;;;;;15.05;2.53;;;;;;;;;;5018937;28;20496;-66
2022/11/10 03:53:07;;;;;;;15.85;2.53;;;;;;;;;;5032302;28;20478;-64
2022/11/10 03:55:32;;;;;;;14.88;2.72;;;;;;;;;;5036180;28;20647;-67
2022/11/10 03:58:02;;;;;;;14.77;2.30;;;;;;;;;;5017856;28;20020;-66
2022/11/10 04:00:28;;;;;;;23.73;3.10;;;;;;;;;;5018910;28;20610;-64
2022/11/10 04:02:53;;;;;;;12.30;3.00;;;;;;;;;;5018237;28;20026;-65
2022/11/10 04:10:48;;;;;;;17.65;2.83;;;;;;;;;;5027907;28;20104;-65
2022/11/10 04:15:57;;;;;;;10.38;2.10;;;;;;;;;;5016433;28;20068;-64
2022/11/10 04:18:25;;;;;;;12.00;2.08;;;;;;;;;;5016286;28;20410;-66
2022/11/10 04:20:55;;;;;;;18.05;2.85;;;;;;;;;;5016938;28;20021;-63
2022/11/10 04:23:27;;;;;;;14.05;2.47;;;;;;;;;;5019249;28;20028;-65
2022/11/10 04:28:38;;;;;;;15.98;3.03;;;;;;;;;;5019347;28;20021;-65
2022/11/10 04:31:03;;;;;;;14.25;1.90;;;;;;;;;;5017068;28;20018;-66
2022/11/10 04:33:29;;;;;;;19.50;3.17;;;;;;;;;;5034453;28;20048;-67
2022/11/10 04:35:54;;;;;;;21.05;2.72;;;;;;;;;;5035392;28;20083;-64
2022/11/10 04:38:19;;;;;;;9.45;2.25;;;;;;;;;;5036452;28;20025;-66
2022/11/10 04:40:44;;;;;;;15.75;3.20;;;;;;;;;;5036513;28;20017;-65
2022/11/10 04:43:09;;;;;;;15.20;2.72;;;;;;;;;;5033304;28;20021;-65
2022/11/10 04:45:35;;;;;;;20.38;2.40;;;;;;;;;;5033028;28;20030;-66
2022/11/10 04:48:00;;;;;;;13.00;3.28;;;;;;;;;;5035275;28;20026;-63
2022/11/10 04:50:26;;;;;;;15.13;2.85;;;;;;;;;;5019553;28;20049;-64
2022/11/10 04:52:52;;;;;;;7.53;2.55;;;;;;;;;;5020381;28;20363;-69
2022/11/10 04:55:17;;;;;;;11.50;2.70;;;;;;;;;;5023183;28;20013;-66
2022/11/10 04:57:42;;;;;;;12.68;2.70;;;;;;;;;;5033259;28;20014;-66
2022/11/10 05:00:09;;;;;;;20.83;2.55;;;;;;;;;;5035435;28;20108;-67
2022/11/10 05:02:35;;;;;;;14.52;2.67;;;;;;;;;;5028457;28;20460;-67
2022/11/10 05:05:00;;;;;;;10.05;2.53;;;;;;;;;;5029004;28;20032;-64
2022/11/10 05:07:25;;;;;;;8.73;2.40;;;;;;;;;;5032778;28;20072;-65
2022/11/10 05:09:50;;;;;;;11.95;2.33;;;;;;;;;;5034894;28;20147;-65
2022/11/10 05:12:16;;;;;;;16.13;2.60;;;;;;;;;;5029333;28;20013;-65
2022/11/10 05:14:41;;;;;;;18.92;3.10;;;;;;;;;;5027900;28;20435;-64
2022/11/10 05:17:06;;;;;;;16.13;3.03;;;;;;;;;;5034155;28;20625;-66
2022/11/10 05:19:31;;;;;;;7.50;1.95;;;;;;;;;;5030706;28;20091;-66
2022/11/10 05:21:56;;;;;;;18.40;2.63;;;;;;;;;;5029202;28;20105;-65
2022/11/10 05:24:22;;;;;;;20.65;2.65;;;;;;;;;;5033423;28;20019;-68
2022/11/10 05:26:47;;;;;;;21.45;3.47;;;;;;;;;;5021277;28;20045;-65
2022/11/10 05:29:12;;;;;;;10.32;2.13;;;;;;;;;;5033623;28;20036;-70
2022/11/10 05:31:38;;;;;;;12.60;2.70;;;;;;;;;;5032431;28;20022;-65
2022/11/10 05:34:03;;;;;;;13.50;2.75;;;;;;;;;;5035491;28;20033;-66
2022/11/10 05:36:28;;;;;;;8.55;2.38;;;;;;;;;;5019899;28;20418;-66
2022/11/10 05:38:53;;;;;;;15.27;3.10;;;;;;;;;;5017978;28;20025;-65
2022/11/10 05:41:18;;;;;;;22.50;2.50;;;;;;;;;;5022395;28;20017;-66
2022/11/10 05:43:44;;;;;;;10.02;2.55;;;;;;;;;;5025923;28;20014;-66
2022/11/10 05:46:09;;;;;;;13.13;2.33;;;;;;;;;;5031384;28;20018;-66
2022/11/10 05:48:34;;;;;;;15.10;2.40;;;;;;;;;;5032471;28;20491;-67
2022/11/10 05:50:59;;;;;;;13.23;2.85;;;;;;;;;;5017859;28;20108;-66
2022/11/10 05:53:25;;;;;;;14.85;2.92;;;;;;;;;;5027633;28;20096;-66
2022/11/10 05:55:50;;;;;;;36.72;3.35;;;;;;;;;;5030366;28;20018;-68
2022/11/10 05:58:16;;;;;;;13.77;2.63;;;;;;;;;;5029410;28;20096;-66
2022/11/10 06:00:41;;;;;;;7.00;2.55;;;;;;;;;;5022133;28;20027;-66
2022/11/10 06:03:13;;;;;;;12.20;2.78;;;;;;;;;;5017745;28;20013;-69
2022/11/10 06:05:38;;;;;;;28.27;6.75;;;;;;;;;;5031242;28;20071;-68
2022/11/10 06:08:04;;;;;;;12.52;3.13;;;;;;;;;;5029296;28;20017;-68
2022/11/10 06:10:29;;;;;;;13.02;2.72;;;;;;;;;;5029672;28;20530;-68
2022/11/10 06:12:55;;;;;;;12.27;2.33;;;;;;;;;;5031137;28;20078;-68
2022/11/10 06:15:20;;;;;;;16.33;2.75;;;;;;;;;;5027998;28;20015;-67
2022/11/10 06:17:46;;;;;;;18.35;3.15;;;;;;;;;;5027193;28;20683;-65
2022/11/10 06:20:12;;;;;;;16.98;2.95;;;;;;;;;;5030441;28;20052;-66
2022/11/10 06:22:37;;;;;;;23.83;2.75;;;;;;;;;;5015493;28;20009;-67
2022/11/10 06:25:03;;;;;;;20.60;3.50;;;;;;;;;;5028962;28;20025;-66
2022/11/10 06:27:28;;;;;;;10.45;2.45;;;;;;;;;;5015746;28;20022;-68
2022/11/10 06:29:53;;;;;;;21.27;4.68;;;;;;;;;;5031742;28;20069;-67
2022/11/10 06:32:18;;;;;;;19.75;2.80;;;;;;;;;;5027082;28;20444;-67
2022/11/10 06:34:44;;;;;;;20.13;2.42;;;;;;;;;;5027732;28;20483;-68
2022/11/10 06:37:09;;;;;;;23.88;4.05;;;;;;;;;;5028510;28;20021;-66
2022/11/10 06:39:34;;;;;;;16.30;2.53;;;;;;;;;;5029725;28;20021;-65
2022/11/10 06:41:59;;;;;;;15.40;3.15;;;;;;;;;;5022172;28;20018;-68
2022/11/10 06:44:25;;;;;;;14.50;3.95;;;;;;;;;;5025272;28;20190;-66
2022/11/10 06:46:50;;;;;;;21.90;3.65;;;;;;;;;;5027965;28;20022;-68
2022/11/10 06:49:15;;;;;;;17.25;2.83;;;;;;;;;;5028820;28;20013;-65
2022/11/10 06:51:41;;;;;;;17.75;3.33;;;;;;;;;;5028555;28;20017;-68
2022/11/10 06:54:06;;;;;;;20.35;3.95;;;;;;;;;;5024101;28;20025;-65
2022/11/10 06:56:31;;;;;;;11.57;2.85;;;;;;;;;;5017611;28;20071;-66
2022/11/10 06:58:56;;;;;;;19.17;3.30;;;;;;;;;;5026310;28;20045;-66
2022/11/10 07:01:25;;;;;;;14.52;2.90;;;;;;;;;;5030594;28;20021;-66
2022/11/10 07:03:50;;;;;;;23.37;4.00;;;;;;;;;;5030571;28;20020;-67
2022/11/10 07:06:15;;;;;;;15.35;3.05;;;;;;;;;;5028391;28;20267;-68
2022/11/10 07:08:41;;;;;;;22.42;3.67;;;;;;;;;;5029457;28;20102;-65
2022/11/10 07:11:06;;;;;;;13.25;2.63;;;;;;;;;;5030246;28;20030;-67
2022/11/10 07:13:31;;;;;;;22.77;3.53;;;;;;;;;;5029904;28;20120;-66
2022/11/10 07:15:56;;;;;;;15.05;2.53;;;;;;;;;;5029346;28;20017;-65
2022/11/10 07:18:22;;;;;;;17.90;2.83;;;;;;;;;;5025560;28;20020;-65
2022/11/10 07:20:47;;;;;;;23.92;2.70;;;;;;;;;;5025822;28;20014;-65
2022/11/10 07:23:12;;;;;;;22.55;3.10;;;;;;;;;;5028627;28;20104;-66
2022/11/10 07:25:38;;;;;;;24.85;4.35;;;;;;;;;;5029594;28;20118;-67
2022/11/10 07:28:04;;;;;;;20.13;3.17;;;;;;;;;;5026328;28;20021;-66
2022/11/10 07:30:30;;;;;;;9.13;2.40;;;;;;;;;;5016832;28;20022;-67
2022/11/10 07:32:59;;;;;;;11.55;2.53;;;;;;;;;;5028354;28;20550;-67
2022/11/10 07:35:27;;;;;;;18.05;2.85;;;;;;;;;;5023333;28;20087;-66
2022/11/10 07:37:52;;;;;;;14.82;3.15;;;;;;;;;;5021713;28;20010;-67
2022/11/10 07:40:17;;;;;;;9.88;2.53;;;;;;;;;;5021837;28;20492;-66
2022/11/10 07:42:42;;;;;;;14.93;2.20;;;;;;;;;;5021970;28;20495;-65
2022/11/10 07:45:08;;;;;;;11.13;2.97;;;;;;;;;;5020139;28;20040;-67
2022/11/10 07:47:33;;;;;;;21.23;2.90;;;;;;;;;;5020066;28;20056;-69
2022/11/10 07:49:58;;;;;;;18.88;2.65;;;;;;;;;;5021573;28;20021;-67
2022/11/10 07:52:23;;;;;;;21.27;3.28;;;;;;;;;;5020494;28;20022;-66
2022/11/10 07:54:49;;;;;;;18.52;3.35;;;;;;;;;;5019741;28;20106;-65
2022/11/10 07:57:14;;;;;;;22.10;3.25;;;;;;;;;;5021173;28;20167;-65
2022/11/10 07:59:39;;;;;;;17.00;2.45;;;;;;;;;;5021317;28;20066;-69
2022/11/10 08:02:05;;;;;;;12.18;2.80;;;;;;;;;;5021442;28;20101;-66
2022/11/10 08:04:30;;;;;;;23.20;3.72;;;;;;;;;;5019786;28;20017;-66
2022/11/10 08:06:57;;;;;;;22.42;3.00;;;;;;;;;;5019609;28;20034;-68
2022/11/10 08:09:22;;;;;;;11.98;3.17;;;;;;;;;;5024105;28;20040;-69
2022/11/10 08:11:48;;;;;;;16.58;2.92;;;;;;;;;;5025602;28;20014;-65
2022/11/10 08:14:13;;;;;;;16.40;2.92;;;;;;;;;;5025661;28;20021;-66
2022/11/10 08:16:38;;;;;;;15.27;2.65;;;;;;;;;;5022522;28;20029;-67
2022/11/10 08:19:03;;;;;;;12.73;2.90;;;;;;;;;;5026453;28;20910;-66
2022/11/10 08:21:29;;;;;;;12.73;2.78;;;;;;;;;;5025815;28;20759;-66
2022/11/10 08:23:55;;;;;;;16.83;3.45;;;;;;;;;;5023225;28;20022;-67
2022/11/10 08:26:20;;;;;;;23.35;4.38;;;;;;;;;;5023637;28;20025;-66
2022/11/10 08:28:45;;;;;;;14.57;3.47;;;;;;;;;;5024590;28;20215;-67
2022/11/10 08:31:11;;;;;;;16.30;4.05;;;;;;;;;;5024553;28;20184;-65
2022/11/10 08:33:36;;;;;;;11.02;3.03;;;;;;;;;;5025210;28;20053;-66
2022/11/10 08:36:01;;;;;;;12.63;2.47;;;;;;;;;;5022486;28;20830;-65
2022/11/10 08:38:27;;;;;;;19.92;3.67;;;;;;;;;;5022312;28;20013;-67
2022/11/10 08:40:54;;;;;;;23.77;4.32;;;;;;;;;;5024022;28;20102;-67
2022/11/10 08:43:20;;;;;;;17.10;3.80;;;;;;;;;;5023892;28;20081;-67
2022/11/10 08:45:45;;;;;;;17.40;2.92;;;;;;;;;;5021955;28;20629;-66
2022/11/10 08:48:10;;;;;;;16.27;3.53;;;;;;;;;;5022688;28;20029;-67
2022/11/10 08:50:35;;;;;;;16.45;4.20;;;;;;;;;;5025620;28;20606;-69
2022/11/10 08:53:01;;;;;;;32.53;4.15;;;;;;;;;;5024338;28;20513;-68
2022/11/10 08:55:27;;;;;;;21.80;3.95;;;;;;;;;;5022581;28;20041;-69
2022/11/10 08:57:56;;;;;;;13.20;3.33;;;;;;;;;;5023001;28;20398;-65
2022/11/10 09:00:21;;;;;;;26.27;3.90;;;;;;;;;;5024549;28;20021;-66
2022/11/10 09:02:47;;;;;;;20.92;4.05;;;;;;;;;;5026199;28;20025;-68
2022/11/10 09:05:12;;;;;;;15.77;3.28;;;;;;;;;;5024593;28;20022;-68
2022/11/10 09:07:44;;;;;;;20.33;3.55;;;;;;;;;;5025022;28;20021;-66
2022/11/10 09:10:10;;;;;;;26.73;4.15;;;;;;;;;;5021179;28;20026;-68
2022/11/10 09:12:36;;;;;;;21.70;4.47;;;;;;;;;;5025414;28;20021;-68
2022/11/10 09:15:01;;;;;;;18.85;4.03;;;;;;;;;;5022982;28;20037;-67
2022/11/10 09:17:26;;;;;;;15.23;4.03;;;;;;;;;;5023278;28;20017;-66
2022/11/10 09:19:51;;;;;;;22.63;3.90;;;;;;;;;;5022978;28;20014;-67
2022/11/10 09:22:16;;;;;;;11.50;3.63;;;;;;;;;;5023571;28;20021;-66
2022/11/10 09:24:42;;;;;;;27.20;4.90;;;;;;;;;;5019156;28;20184;-65
2022/11/10 09:27:07;;;;;;;15.88;3.35;;;;;;;;;;5022752;28;20021;-65
2022/11/10 09:29:32;;;;;;;30.92;4.78;;;;;;;;;;5023529;28;20030;-66
2022/11/10 09:31:57;;;;;;;19.65;3.85;;;;;;;;;;5020838;28;20032;-66
2022/11/10 09:34:23;;;;;;;19.83;3.63;;;;;;;;;;5023497;28;20017;-67
2022/11/10 09:36:48;;;;;;;12.05;3.92;;;;;;;;;;5020548;28;20017;-66
2022/11/10 09:39:14;;;;;;;23.83;4.00;;;;;;;;;;5022440;28;20021;-67
2022/11/10 09:41:41;;;;;;;23.98;3.58;;;;;;;;;;5020806;28;20037;-67
2022/11/10 09:44:20;;;;;;;16.63;3.45;;;;;;;;;;5021711;28;20025;-65
2022/11/10 09:46:45;;;;;;;;;;;;;;;;;;5019373;28;20324;-67
2022/11/10 09:49:16;;;;;;;16.30;4.18;;;;;;;;;;5021238;28;20050;-68
2022/11/10 09:51:42;;;;;;;17.83;3.50;;;;;;;;;;5023967;28;20059;-66
2022/11/10 09:54:23;;;;;;;20.52;4.15;;;;;;;;;;5022429;28;20022;-66
2022/11/10 09:56:50;;;;;;;22.33;4.03;;;;;;;;;;5019981;28;20040;-67
2022/11/10 09:59:18;;;;;;;20.45;3.78;;;;;;;;;;5021108;28;20098;-68
2022/11/10 10:01:48;;;;;;;17.98;3.35;;;;;;;;;;5021564;28;20039;-66
2022/11/10 10:04:25;;;;;;;25.63;3.35;;;;;;;;;;5023271;28;20481;-66
2022/11/10 10:07:09;;;;;;;13.63;4.00;;;;;;;;;;5022240;28;20025;-67
2022/11/10 10:09:40;;;;;;;25.45;3.58;;;;;;;;;;5027869;28;20068;-66
2022/11/10 10:12:24;;;;;;;16.17;2.88;;;;;;;;;;5025749;28;20018;-66
2022/11/10 10:14:55;;;;;;;17.77;3.53;;;;;;;;;;5026712;28;20028;-67
2022/11/10 10:17:32;;;;;;;10.20;2.70;;;;;;;;;;5015182;28;20014;-66
2022/11/10 10:20:01;;;;;;;14.60;3.08;;;;;;;;;;5027241;28;20013;-65
2022/11/10 10:22:58;;;;;;;17.90;2.75;;;;;;;;;;5024582;28;20022;-67
2022/11/10 10:25:25;;;;;;;24.98;3.28;;;;;;;;;;4984948;28;20120;-64
2022/11/10 10:27:57;;;;;;;22.52;3.85;;;;;;;;;;5018242;28;20037;-65
2022/11/10 10:30:22;;;;;;;11.95;3.10;;;;;;;;;;5022398;28;20026;-66
2022/11/10 10:32:50;;;;;;;14.25;3.63;;;;;;;;;;5021825;28;20033;-65
2022/11/10 10:35:16;;;;;;;14.38;3.88;;;;;;;;;;5021320;28;20044;-66
2022/11/10 10:37:48;;;;;;;16.30;3.63;;;;;;;;;;5020480;28;20479;-66
2022/11/10 10:40:18;;;;;;;25.25;3.38;;;;;;;;;;5037477;22;20387;-73
2022/11/10 10:42:44;;;;;;;19.20;3.15;;;;;;;;;;5038869;28;20168;-72
2022/11/10 10:45:19;;;;;;;16.38;3.30;;;;;;;;;;5041193;28;20029;-70
2022/11/10 10:47:45;;;;;;;24.38;2.88;;;;;;;;;;5039783;28;20024;-72
2022/11/10 10:50:29;;;;;;;18.55;3.33;;;;;;;;;;5042027;28;20021;-71
2022/11/10 10:53:12;;;;;;;21.30;3.47;;;;;;;;;;5041314;28;20112;-70
2022/11/10 10:55:38;;;;;;;19.33;3.65;;;;;;;;;;5036012;28;20116;-72
2022/11/10 10:58:05;;;;;;;16.20;3.15;;;;;;;;;;5039479;28;20104;-70
2022/11/10 11:00:32;;;;;;;14.20;3.92;;;;;;;;;;5039072;28;20021;-73
2022/11/10 11:03:01;;;;;;;16.13;3.38;;;;;;;;;;5043086;28;20477;-66
2022/11/10 11:05:26;;;;;;;16.83;3.00;;;;;;;;;;5039243;28;20029;-71
2022/11/10 11:07:55;;;;;;;12.52;2.90;;;;;;;;;;5040082;28;20344;-69
2022/11/10 11:10:22;;;;;;;28.00;3.65;;;;;;;;;;5039094;28;20075;-71
2022/11/10 11:12:47;;;;;;;10.85;2.80;;;;;;;;;;5038224;28;20436;-72
2022/11/10 11:15:27;;;;;;;14.68;3.03;;;;;;;;;;5025823;28;20032;-73
2022/11/10 11:17:56;;;;;;;27.30;3.67;;;;;;;;;;5026912;28;20171;-71
2022/11/10 11:20:26;;;;;;;13.82;3.47;;;;;;;;;;5035610;28;20014;-72
2022/11/10 11:23:01;;;;;;;18.20;3.00;;;;;;;;;;5040645;28;20021;-70
2022/11/10 11:25:35;;;;;;;17.35;2.65;;;;;;;;;;4998702;28;20076;-72
2022/11/10 11:28:06;;;;;;;29.55;3.75;;;;;;;;;;5027764;28;20049;-70
2022/11/10 11:30:45;;;;;;;21.70;3.17;;;;;;;;;;5026488;28;20336;-69
2022/11/10 11:33:14;;;;;;;17.80;3.67;;;;;;;;;;5031253;28;20691;-67
2022/11/10 11:35:40;;;;;;;;;;;;;;;;;;5036024;28;20033;-69
2022/11/10 11:38:15;;;;;;;20.33;3.78;;;;;;;;;;5027053;28;19913;-71
2022/11/10 11:40:40;;;;;;;17.38;3.17;;;;;;;;;;5028174;28;20053;-72
2022/11/10 11:43:20;;;;;;;14.40;3.13;;;;;;;;;;5029246;28;20052;-70
2022/11/10 11:45:48;;;;;;;21.45;3.05;;;;;;;;;;5031462;28;20045;-67
2022/11/10 11:48:20;;;;;;;22.67;3.30;;;;;;;;;;5031552;28;20423;-73
2022/11/10 11:50:56;;;;;;;17.70;3.78;;;;;;;;;;5029842;28;20371;-70
2022/11/10 11:53:27;;;;;;;21.23;3.22;;;;;;;;;;5031428;28;20025;-70
2022/11/10 11:55:58;;;;;;;21.40;3.17;;;;;;;;;;5045563;28;20014;-71
2022/11/10 11:58:35;;;;;;;21.50;3.55;;;;;;;;;;5030522;28;20033;-69
2022/11/10 12:01:13;;;;;;;21.73;2.85;;;;;;;;;;5017456;28;20014;-70
2022/11/10 12:04:01;;;;;;;16.13;3.58;;;;;;;;;;5032255;28;20022;-71
2022/11/10 12:06:31;;;;;;;14.55;3.35;;;;;;;;;;5001011;28;20117;-68
2022/11/10 12:09:00;;;;;;;18.83;4.50;;;;;;;;;;5025067;28;20040;-69
2022/11/10 12:11:28;;;;;;;22.80;3.58;;;;;;;;;;5030155;28;20022;-69
2022/11/10 12:13:59;;;;;;;17.52;2.67;;;;;;;;;;5029755;28;20036;-69
2022/11/10 12:16:27;;;;;;;25.27;3.78;;;;;;;;;;5029562;28;20067;-66
2022/11/10 12:18:53;;;;;;;19.05;3.08;;;;;;;;;;5031231;28;20685;-71
2022/11/10 12:21:23;;;;;;;20.30;2.75;;;;;;;;;;5030931;28;20124;-67
2022/11/10 12:23:48;;;;;;;11.95;2.67;;;;;;;;;;5030350;28;20021;-72
2022/11/10 12:26:31;;;;;;;21.65;2.95;;;;;;;;;;5012554;28;20043;-68
2022/11/10 12:29:11;;;;;;;14.10;2.13;;;;;;;;;;5029664;28;20093;-71
2022/11/10 12:31:37;;;;;;;19.80;3.05;;;;;;;;;;5023865;28;20022;-70
2022/11/10 12:34:28;;;;;;;8.57;2.38;;;;;;;;;;5022297;28;20030;-67
2022/11/10 12:36:56;;;;;;;13.18;2.65;;;;;;;;;;5010088;28;20034;-71
2022/11/10 12:39:31;;;;;;;20.60;2.63;;;;;;;;;;5029592;28;20075;-69
2022/11/10 12:41:57;;;;;;;11.27;2.20;;;;;;;;;;5032239;28;20024;-71
2022/11/10 12:44:29;;;;;;;19.67;2.33;;;;;;;;;;5041913;28;20493;-69
2022/11/10 12:46:57;;;;;;;15.05;2.20;;;;;;;;;;5028102;28;20482;-71
2022/11/10 12:49:26;;;;;;;9.63;2.80;;;;;;;;;;5030484;28;20057;-68
2022/11/10 12:51:52;;;;;;;30.05;2.38;;;;;;;;;;5029796;28;20019;-69
2022/11/10 12:54:18;;;;;;;10.48;1.88;;;;;;;;;;5028495;28;20395;-69
2022/11/10 12:56:46;;;;;;;14.32;2.15;;;;;;;;;;5028738;28;20046;-70
2022/11/10 12:59:21;;;;;;;17.08;2.53;;;;;;;;;;5029503;28;20099;-69
2022/11/10 13:02:09;;;;;;;19.17;2.30;;;;;;;;;;5029201;28;20041;-71
2022/11/10 13:04:34;;;;;;;21.23;3.33;;;;;;;;;;5010555;28;20036;-70
2022/11/10 13:07:03;;;;;;;14.02;2.40;;;;;;;;;;5030852;28;20398;-72
2022/11/10 13:09:30;;;;;;;13.73;2.40;;;;;;;;;;5039603;28;20487;-70
2022/11/10 13:12:14;;;;;;;12.38;2.30;;;;;;;;;;5029191;28;20026;-70
2022/11/10 13:14:39;;;;;;;16.90;3.10;;;;;;;;;;5029442;28;20029;-71
2022/11/10 13:17:05;;;;;;;16.35;2.50;;;;;;;;;;5028179;28;20033;-70
2022/11/10 13:19:33;;;;;;;17.20;3.00;;;;;;;;;;5035535;28;20091;-69
2022/11/10 13:21:59;;;;;;;12.77;2.53;;;;;;;;;;5041577;28;20025;-71
2022/11/10 13:24:24;;;;;;;22.58;3.47;;;;;;;;;;5028732;28;20027;-72
2022/11/10 13:26:49;;;;;;;15.57;2.63;;;;;;;;;;5027679;28;20049;-69
2022/11/10 13:29:30;;;;;;;23.40;3.33;;;;;;;;;;5028816;28;20278;-68
2022/11/10 13:31:56;;;;;;;10.88;2.50;;;;;;;;;;5022885;28;20314;-70
2022/11/10 13:34:26;;;;;;;17.73;2.65;;;;;;;;;;5047317;28;20017;-69
2022/11/10 13:36:51;;;;;;;14.80;3.13;;;;;;;;;;5028310;28;20013;-67
2022/11/10 13:39:22;;;;;;;19.67;3.38;;;;;;;;;;5028422;28;20024;-68
2022/11/10 13:41:50;;;;;;;16.75;3.03;;;;;;;;;;5028925;28;20389;-66
2022/11/10 13:44:26;;;;;;;14.95;2.63;;;;;;;;;;5028626;28;20027;-69
2022/11/10 13:46:57;;;;;;;13.93;2.53;;;;;;;;;;5027485;28;20033;-70
2022/11/10 13:49:32;;;;;;;19.15;2.67;;;;;;;;;;5029593;28;20025;-70
2022/11/10 13:52:07;;;;;;;18.35;3.05;;;;;;;;;;5036934;28;20089;-70
2022/11/10 13:54:44;;;;;;;14.95;2.42;;;;;;;;;;5034091;28;20134;-67
2022/11/10 13:57:27;;;;;;;16.55;2.47;;;;;;;;;;5032989;28;20112;-70
2022/11/10 13:59:55;;;;;;;14.63;2.70;;;;;;;;;;5010124;28;20025;-69
2022/11/10 14:02:32;;;;;;;13.65;3.15;;;;;;;;;;5026052;28;20520;-70
2022/11/10 14:05:02;;;;;;;19.90;2.42;;;;;;;;;;5022227;28;20097;-69
2022/11/10 14:07:29;;;;;;;10.50;2.67;;;;;;;;;;5010133;28;20074;-70
2022/11/10 14:09:54;;;;;;;11.80;2.40;;;;;;;;;;5011350;28;20040;-71
2022/11/10 14:12:32;;;;;;;22.25;3.40;;;;;;;;;;5014665;28;20112;-70
2022/11/10 14:14:59;;;;;;;15.85;2.67;;;;;;;;;;5028344;28;20108;-68
2022/11/10 14:17:27;;;;;;;17.73;3.45;;;;;;;;;;5012545;28;20514;-71
2022/11/10 14:19:52;;;;;;;21.38;2.35;;;;;;;;;;5028906;28;20014;-70
2022/11/10 14:22:24;;;;;;;13.02;2.25;;;;;;;;;;5027288;28;20574;-69
2022/11/10 14:24:55;;;;;;;12.20;2.20;;;;;;;;;;5010016;28;20031;-67
2022/11/10 14:27:22;;;;;;;16.13;2.25;;;;;;;;;;5027209;28;20455;-70
2022/11/10 14:29:47;;;;;;;21.92;2.70;;;;;;;;;;5027530;28;20032;-67
2022/11/10 14:32:23;;;;;;;18.25;2.28;;;;;;;;;;5028964;28;20021;-72
2022/11/10 14:34:49;;;;;;;17.45;2.53;;;;;;;;;;5041857;28;20051;-70
2022/11/10 14:37:25;;;;;;;24.55;3.67;;;;;;;;;;5027386;28;20151;-70
2022/11/10 14:39:51;;;;;;;14.25;1.92;;;;;;;;;;5027960;28;20028;-71
2022/11/10 14:42:22;;;;;;;19.48;5.10;;;;;;;;;;5029993;28;20081;-69
2022/11/10 14:44:47;;;;;;;20.65;2.90;;;;;;;;;;5034795;28;20082;-69
2022/11/10 14:47:26;;;;;;;8.38;2.50;;;;;;;;;;5025660;28;20532;-70